sensor_id;sensor_type;location;lat;lon;timestamp;temperature;humidity
41592;DHT22;28026;48.562;14.440;2023-12-07T00:00:46;-0.10;99.90
41592;DHT22;28026;48.562;14.440;2023-12-07T00:03:17;-0.20;99.90
41592;DHT22;28026;48.562;14.440;2023-12-07T00:05:48;-0.20;99.90
41592;DHT22;28026;48.562;14.440;2023-12-07T00:08:19;-0.10;99.90
41592;DHT22;28026;48.562;14.440;2023-12-07T00:10:50;-0.20;99.90
41592;DHT22;28026;48.562;14.440;2023-12-07T00:13:20;-0.20;99.90
41592;DHT22;28026;48.562;14.440;2023-12-07T00:15:51;-0.20;99.90
41592;DHT22;28026;48.562;14.440;2023-12-07T00:18:22;-0.20;99.90
41592;DHT22;28026;48.562;14.440;2023-12-07T00:20:53;-0.20;99.90
41592;DHT22;28026;48.562;14.440;2023-12-07T00:23:24;-0.10;99.90
41592;DHT22;28026;48.562;14.440;2023-12-07T00:25:55;-0.10;99.90
41592;DHT22;28026;48.562;14.440;2023-12-07T00:28:26;-0.10;99.90
41592;DHT22;28026;48.562;14.440;2023-12-07T00:30:57;-0.10;99.90
41592;DHT22;28026;48.562;14.440;2023-12-07T00:33:28;-0.10;99.90
41592;DHT22;28026;48.562;14.440;2023-12-07T00:35:59;-0.10;99.90
41592;DHT22;28026;48.562;14.440;2023-12-07T00:38:29;-0.10;99.90
41592;DHT22;28026;48.562;14.440;2023-12-07T00:41:02;-0.10;99.90
41592;DHT22;28026;48.562;14.440;2023-12-07T00:43:34;-0.10;99.90
41592;DHT22;28026;48.562;14.440;2023-12-07T00:46:07;-0.10;99.90
41592;DHT22;28026;48.562;14.440;2023-12-07T00:48:38;-0.10;99.90
41592;DHT22;28026;48.562;14.440;2023-12-07T00:51:09;-0.10;99.90
41592;DHT22;28026;48.562;14.440;2023-12-07T00:53:40;-0.10;99.90
41592;DHT22;28026;48.562;14.440;2023-12-07T00:56:12;-0.20;99.90
41592;DHT22;28026;48.562;14.440;2023-12-07T00:58:42;-0.20;99.90
41592;DHT22;28026;48.562;14.440;2023-12-07T01:01:13;-0.10;99.90
41592;DHT22;28026;48.562;14.440;2023-12-07T01:03:44;-0.10;99.90
41592;DHT22;28026;48.562;14.440;2023-12-07T01:06:15;-0.20;99.90
41592;DHT22;28026;48.562;14.440;2023-12-07T01:08:47;-0.10;99.90
41592;DHT22;28026;48.562;14.440;2023-12-07T01:11:18;-0.10;99.90
41592;DHT22;28026;48.562;14.440;2023-12-07T01:13:48;-0.10;99.90
41592;DHT22;28026;48.562;14.440;2023-12-07T01:16:19;0.00;99.90
41592;DHT22;28026;48.562;14.440;2023-12-07T01:18:50;-0.10;99.90
41592;DHT22;28026;48.562;14.440;2023-12-07T01:21:21;-0.10;99.90
41592;DHT22;28026;48.562;14.440;2023-12-07T01:23:52;0.00;99.90
41592;DHT22;28026;48.562;14.440;2023-12-07T01:26:23;0.00;99.90
41592;DHT22;28026;48.562;14.440;2023-12-07T01:28:54;0.00;99.90
41592;DHT22;28026;48.562;14.440;2023-12-07T01:31:25;-0.10;99.90
41592;DHT22;28026;48.562;14.440;2023-12-07T01:33:56;-0.10;99.90
41592;DHT22;28026;48.562;14.440;2023-12-07T01:36:27;-0.10;99.90
41592;DHT22;28026;48.562;14.440;2023-12-07T01:38:58;-0.10;99.90
41592;DHT22;28026;48.562;14.440;2023-12-07T01:41:29;-0.10;99.90
41592;DHT22;28026;48.562;14.440;2023-12-07T01:44:00;-0.10;99.90
41592;DHT22;28026;48.562;14.440;2023-12-07T01:46:31;-0.10;99.90
41592;DHT22;28026;48.562;14.440;2023-12-07T01:49:03;-0.10;99.90
41592;DHT22;28026;48.562;14.440;2023-12-07T01:51:34;-0.20;99.90
41592;DHT22;28026;48.562;14.440;2023-12-07T01:54:06;-0.20;99.90
41592;DHT22;28026;48.562;14.440;2023-12-07T01:56:36;-0.20;99.90
41592;DHT22;28026;48.562;14.440;2023-12-07T01:59:08;-0.20;99.90
41592;DHT22;28026;48.562;14.440;2023-12-07T02:01:41;-0.20;99.90
41592;DHT22;28026;48.562;14.440;2023-12-07T02:04:13;-0.20;99.90
41592;DHT22;28026;48.562;14.440;2023-12-07T02:06:44;-0.10;99.90
41592;DHT22;28026;48.562;14.440;2023-12-07T02:09:16;-0.10;99.90
41592;DHT22;28026;48.562;14.440;2023-12-07T02:11:46;-0.10;99.90
41592;DHT22;28026;48.562;14.440;2023-12-07T02:14:17;-0.10;99.90
41592;DHT22;28026;48.562;14.440;2023-12-07T02:16:53;-0.20;99.90
41592;DHT22;28026;48.562;14.440;2023-12-07T02:22:55;-0.20;99.90
41592;DHT22;28026;48.562;14.440;2023-12-07T02:28:50;-0.20;99.90
41592;DHT22;28026;48.562;14.440;2023-12-07T02:31:22;-0.20;99.90
41592;DHT22;28026;48.562;14.440;2023-12-07T02:33:53;-0.30;99.90
41592;DHT22;28026;48.562;14.440;2023-12-07T02:36:27;-0.30;99.90
41592;DHT22;28026;48.562;14.440;2023-12-07T02:39:01;-0.20;99.90
41592;DHT22;28026;48.562;14.440;2023-12-07T02:41:33;-0.30;99.90
41592;DHT22;28026;48.562;14.440;2023-12-07T02:44:07;-0.20;99.90
41592;DHT22;28026;48.562;14.440;2023-12-07T02:46:39;-0.30;99.90
41592;DHT22;28026;48.562;14.440;2023-12-07T02:49:09;-0.30;99.90
41592;DHT22;28026;48.562;14.440;2023-12-07T02:51:40;-0.30;99.90
41592;DHT22;28026;48.562;14.440;2023-12-07T02:54:11;-0.40;99.90
41592;DHT22;28026;48.562;14.440;2023-12-07T02:56:42;-0.40;99.90
41592;DHT22;28026;48.562;14.440;2023-12-07T02:59:13;-0.30;99.90
41592;DHT22;28026;48.562;14.440;2023-12-07T03:01:44;-0.30;99.90
41592;DHT22;28026;48.562;14.440;2023-12-07T03:04:14;-0.30;99.90
41592;DHT22;28026;48.562;14.440;2023-12-07T03:06:46;-0.40;99.90
41592;DHT22;28026;48.562;14.440;2023-12-07T03:09:16;-0.30;99.90
41592;DHT22;28026;48.562;14.440;2023-12-07T03:11:47;-0.30;99.90
41592;DHT22;28026;48.562;14.440;2023-12-07T03:14:18;-0.30;99.90
41592;DHT22;28026;48.562;14.440;2023-12-07T03:16:50;-0.30;99.90
41592;DHT22;28026;48.562;14.440;2023-12-07T03:19:20;-0.30;99.90
41592;DHT22;28026;48.562;14.440;2023-12-07T03:21:51;-0.20;99.90
41592;DHT22;28026;48.562;14.440;2023-12-07T03:24:22;-0.30;99.90
41592;DHT22;28026;48.562;14.440;2023-12-07T03:26:53;-0.30;99.90
41592;DHT22;28026;48.562;14.440;2023-12-07T03:29:24;-0.40;99.90
41592;DHT22;28026;48.562;14.440;2023-12-07T03:31:55;-0.30;99.90
41592;DHT22;28026;48.562;14.440;2023-12-07T03:34:26;-0.40;99.90
41592;DHT22;28026;48.562;14.440;2023-12-07T03:36:57;-0.50;99.90
41592;DHT22;28026;48.562;14.440;2023-12-07T03:39:27;-0.50;99.90
41592;DHT22;28026;48.562;14.440;2023-12-07T03:42:01;-0.50;99.90
41592;DHT22;28026;48.562;14.440;2023-12-07T03:44:32;-0.40;99.90
41592;DHT22;28026;48.562;14.440;2023-12-07T03:47:03;-0.40;99.90
41592;DHT22;28026;48.562;14.440;2023-12-07T03:49:34;-0.50;99.90
41592;DHT22;28026;48.562;14.440;2023-12-07T03:52:05;-0.50;99.90
41592;DHT22;28026;48.562;14.440;2023-12-07T03:54:36;-0.50;99.90
41592;DHT22;28026;48.562;14.440;2023-12-07T03:57:07;-0.40;99.90
41592;DHT22;28026;48.562;14.440;2023-12-07T03:59:38;-0.40;99.90
41592;DHT22;28026;48.562;14.440;2023-12-07T04:02:09;-0.40;99.90
41592;DHT22;28026;48.562;14.440;2023-12-07T04:04:40;-0.40;99.90
41592;DHT22;28026;48.562;14.440;2023-12-07T04:07:11;-0.40;99.90
41592;DHT22;28026;48.562;14.440;2023-12-07T04:09:42;-0.40;99.90
41592;DHT22;28026;48.562;14.440;2023-12-07T04:12:13;-0.40;99.90
41592;DHT22;28026;48.562;14.440;2023-12-07T04:14:43;-0.40;99.90
41592;DHT22;28026;48.562;14.440;2023-12-07T04:17:14;-0.40;99.90
41592;DHT22;28026;48.562;14.440;2023-12-07T04:19:45;-0.40;99.90
41592;DHT22;28026;48.562;14.440;2023-12-07T04:22:16;-0.40;99.90
41592;DHT22;28026;48.562;14.440;2023-12-07T04:24:47;-0.40;99.90
41592;DHT22;28026;48.562;14.440;2023-12-07T04:27:17;-0.40;99.90
41592;DHT22;28026;48.562;14.440;2023-12-07T04:29:48;-0.40;99.90
41592;DHT22;28026;48.562;14.440;2023-12-07T04:32:19;-0.40;99.90
41592;DHT22;28026;48.562;14.440;2023-12-07T04:34:50;-0.40;99.90
41592;DHT22;28026;48.562;14.440;2023-12-07T04:37:21;-0.50;99.90
41592;DHT22;28026;48.562;14.440;2023-12-07T04:39:52;-0.40;99.90
41592;DHT22;28026;48.562;14.440;2023-12-07T04:42:23;-0.40;99.90
41592;DHT22;28026;48.562;14.440;2023-12-07T04:44:53;-0.40;99.90
41592;DHT22;28026;48.562;14.440;2023-12-07T04:47:24;-0.40;99.90
41592;DHT22;28026;48.562;14.440;2023-12-07T04:49:55;-0.50;99.90
41592;DHT22;28026;48.562;14.440;2023-12-07T04:52:26;-0.50;99.90
41592;DHT22;28026;48.562;14.440;2023-12-07T04:54:57;-0.50;99.90
41592;DHT22;28026;48.562;14.440;2023-12-07T04:57:28;-0.50;99.90
41592;DHT22;28026;48.562;14.440;2023-12-07T04:59:59;-0.50;99.90
41592;DHT22;28026;48.562;14.440;2023-12-07T05:02:30;-0.50;99.90
41592;DHT22;28026;48.562;14.440;2023-12-07T05:05:01;-0.50;99.90
41592;DHT22;28026;48.562;14.440;2023-12-07T05:07:32;-0.50;99.90
41592;DHT22;28026;48.562;14.440;2023-12-07T05:10:03;-0.50;99.90
41592;DHT22;28026;48.562;14.440;2023-12-07T05:12:34;-0.50;99.90
41592;DHT22;28026;48.562;14.440;2023-12-07T05:15:06;-0.50;99.90
41592;DHT22;28026;48.562;14.440;2023-12-07T05:17:38;-0.50;99.90
41592;DHT22;28026;48.562;14.440;2023-12-07T05:20:09;-0.50;99.90
41592;DHT22;28026;48.562;14.440;2023-12-07T05:22:42;-0.40;99.90
41592;DHT22;28026;48.562;14.440;2023-12-07T05:25:13;-0.40;99.90
41592;DHT22;28026;48.562;14.440;2023-12-07T05:27:44;-0.50;99.90
41592;DHT22;28026;48.562;14.440;2023-12-07T05:30:15;-0.40;99.90
41592;DHT22;28026;48.562;14.440;2023-12-07T05:32:46;-0.50;99.90
41592;DHT22;28026;48.562;14.440;2023-12-07T05:35:17;-0.40;99.90
41592;DHT22;28026;48.562;14.440;2023-12-07T05:37:48;-0.40;99.90
41592;DHT22;28026;48.562;14.440;2023-12-07T05:40:19;-0.40;99.90
41592;DHT22;28026;48.562;14.440;2023-12-07T05:42:50;-0.40;99.90
41592;DHT22;28026;48.562;14.440;2023-12-07T05:45:21;-0.40;99.90
41592;DHT22;28026;48.562;14.440;2023-12-07T05:47:52;-0.40;99.90
41592;DHT22;28026;48.562;14.440;2023-12-07T05:50:24;-0.40;99.90
41592;DHT22;28026;48.562;14.440;2023-12-07T05:52:55;-0.40;99.90
41592;DHT22;28026;48.562;14.440;2023-12-07T05:55:26;-0.40;99.90
41592;DHT22;28026;48.562;14.440;2023-12-07T05:57:57;-0.40;99.90
41592;DHT22;28026;48.562;14.440;2023-12-07T06:00:27;-0.40;99.90
41592;DHT22;28026;48.562;14.440;2023-12-07T06:02:58;-0.40;99.90
41592;DHT22;28026;48.562;14.440;2023-12-07T06:05:29;-0.40;99.90
41592;DHT22;28026;48.562;14.440;2023-12-07T06:08:00;-0.40;99.90
41592;DHT22;28026;48.562;14.440;2023-12-07T06:10:31;-0.40;99.90
41592;DHT22;28026;48.562;14.440;2023-12-07T06:13:02;-0.40;99.90
41592;DHT22;28026;48.562;14.440;2023-12-07T06:15:33;-0.40;99.90
41592;DHT22;28026;48.562;14.440;2023-12-07T06:18:04;-0.40;99.90
41592;DHT22;28026;48.562;14.440;2023-12-07T06:20:36;-0.40;99.90
41592;DHT22;28026;48.562;14.440;2023-12-07T06:23:07;-0.40;99.90
41592;DHT22;28026;48.562;14.440;2023-12-07T06:25:38;-0.40;99.90
41592;DHT22;28026;48.562;14.440;2023-12-07T06:28:10;-0.40;99.90
41592;DHT22;28026;48.562;14.440;2023-12-07T06:30:40;-0.50;99.90
41592;DHT22;28026;48.562;14.440;2023-12-07T06:33:12;-0.50;99.90
41592;DHT22;28026;48.562;14.440;2023-12-07T06:35:43;-0.50;99.90
41592;DHT22;28026;48.562;14.440;2023-12-07T06:38:14;-0.50;99.90
41592;DHT22;28026;48.562;14.440;2023-12-07T06:40:44;-0.40;99.90
41592;DHT22;28026;48.562;14.440;2023-12-07T06:43:15;-0.40;99.90
41592;DHT22;28026;48.562;14.440;2023-12-07T06:45:46;-0.30;99.90
41592;DHT22;28026;48.562;14.440;2023-12-07T06:48:17;-0.30;99.90
41592;DHT22;28026;48.562;14.440;2023-12-07T06:50:48;-0.40;99.90
41592;DHT22;28026;48.562;14.440;2023-12-07T06:53:19;-0.40;99.90
41592;DHT22;28026;48.562;14.440;2023-12-07T06:55:50;-0.40;99.90
41592;DHT22;28026;48.562;14.440;2023-12-07T06:58:20;-0.30;99.90
41592;DHT22;28026;48.562;14.440;2023-12-07T07:00:51;-0.40;99.90
41592;DHT22;28026;48.562;14.440;2023-12-07T07:03:22;-0.30;99.90
41592;DHT22;28026;48.562;14.440;2023-12-07T07:05:55;-0.30;99.90
41592;DHT22;28026;48.562;14.440;2023-12-07T07:08:26;-0.20;99.90
41592;DHT22;28026;48.562;14.440;2023-12-07T07:10:57;-0.20;99.90
41592;DHT22;28026;48.562;14.440;2023-12-07T07:13:27;-0.20;99.90
41592;DHT22;28026;48.562;14.440;2023-12-07T07:15:58;-0.10;99.90
41592;DHT22;28026;48.562;14.440;2023-12-07T07:18:29;-0.10;99.90
41592;DHT22;28026;48.562;14.440;2023-12-07T07:21:00;-0.10;99.90
41592;DHT22;28026;48.562;14.440;2023-12-07T07:23:31;-0.10;99.90
41592;DHT22;28026;48.562;14.440;2023-12-07T07:26:02;-0.20;99.90
41592;DHT22;28026;48.562;14.440;2023-12-07T07:28:33;-0.20;99.90
41592;DHT22;28026;48.562;14.440;2023-12-07T07:31:05;-0.20;99.90
41592;DHT22;28026;48.562;14.440;2023-12-07T07:33:36;-0.10;99.90
41592;DHT22;28026;48.562;14.440;2023-12-07T07:36:07;0.00;99.90
41592;DHT22;28026;48.562;14.440;2023-12-07T07:38:38;0.00;99.90
41592;DHT22;28026;48.562;14.440;2023-12-07T07:41:10;0.00;99.90
41592;DHT22;28026;48.562;14.440;2023-12-07T07:43:41;-0.10;99.90
41592;DHT22;28026;48.562;14.440;2023-12-07T07:46:14;-0.20;99.90
41592;DHT22;28026;48.562;14.440;2023-12-07T07:48:45;0.00;99.90
41592;DHT22;28026;48.562;14.440;2023-12-07T07:51:16;0.00;99.90
41592;DHT22;28026;48.562;14.440;2023-12-07T07:53:47;0.10;99.90
41592;DHT22;28026;48.562;14.440;2023-12-07T07:56:18;0.20;99.90
41592;DHT22;28026;48.562;14.440;2023-12-07T07:58:48;0.00;99.90
41592;DHT22;28026;48.562;14.440;2023-12-07T08:01:19;0.00;99.90
41592;DHT22;28026;48.562;14.440;2023-12-07T08:03:50;0.10;99.90
41592;DHT22;28026;48.562;14.440;2023-12-07T08:06:21;0.30;99.90
41592;DHT22;28026;48.562;14.440;2023-12-07T08:08:52;0.40;99.90
41592;DHT22;28026;48.562;14.440;2023-12-07T08:11:23;0.30;99.90
41592;DHT22;28026;48.562;14.440;2023-12-07T08:13:54;0.30;99.90
41592;DHT22;28026;48.562;14.440;2023-12-07T08:16:24;0.40;99.90
41592;DHT22;28026;48.562;14.440;2023-12-07T08:18:55;0.50;99.90
41592;DHT22;28026;48.562;14.440;2023-12-07T08:21:28;0.40;99.90
41592;DHT22;28026;48.562;14.440;2023-12-07T08:24:00;0.50;99.90
41592;DHT22;28026;48.562;14.440;2023-12-07T08:26:31;0.50;99.90
41592;DHT22;28026;48.562;14.440;2023-12-07T08:29:02;0.40;99.90
41592;DHT22;28026;48.562;14.440;2023-12-07T08:31:33;0.40;99.90
41592;DHT22;28026;48.562;14.440;2023-12-07T08:34:04;0.50;99.90
41592;DHT22;28026;48.562;14.440;2023-12-07T08:36:34;0.60;99.90
41592;DHT22;28026;48.562;14.440;2023-12-07T08:39:05;0.70;99.90
41592;DHT22;28026;48.562;14.440;2023-12-07T08:41:40;0.60;99.90
41592;DHT22;28026;48.562;14.440;2023-12-07T08:44:10;0.70;99.90
41592;DHT22;28026;48.562;14.440;2023-12-07T08:46:41;0.90;99.90
41592;DHT22;28026;48.562;14.440;2023-12-07T08:49:15;0.80;99.90
41592;DHT22;28026;48.562;14.440;2023-12-07T08:51:46;1.00;99.90
41592;DHT22;28026;48.562;14.440;2023-12-07T08:54:17;0.90;99.90
41592;DHT22;28026;48.562;14.440;2023-12-07T08:56:47;0.90;99.90
41592;DHT22;28026;48.562;14.440;2023-12-07T08:59:18;0.90;99.90
41592;DHT22;28026;48.562;14.440;2023-12-07T09:01:49;0.90;99.90
41592;DHT22;28026;48.562;14.440;2023-12-07T09:04:20;0.70;99.90
41592;DHT22;28026;48.562;14.440;2023-12-07T09:06:51;0.60;99.90
41592;DHT22;28026;48.562;14.440;2023-12-07T09:09:22;0.50;99.90
41592;DHT22;28026;48.562;14.440;2023-12-07T09:11:53;0.40;99.90
41592;DHT22;28026;48.562;14.440;2023-12-07T09:14:24;0.20;99.90
41592;DHT22;28026;48.562;14.440;2023-12-07T09:16:57;0.30;99.90
41592;DHT22;28026;48.562;14.440;2023-12-07T09:19:27;0.50;99.90
41592;DHT22;28026;48.562;14.440;2023-12-07T09:21:58;0.50;99.90
41592;DHT22;28026;48.562;14.440;2023-12-07T09:24:29;0.60;99.90
41592;DHT22;28026;48.562;14.440;2023-12-07T09:27:00;0.60;99.90
41592;DHT22;28026;48.562;14.440;2023-12-07T09:29:31;0.60;99.90
41592;DHT22;28026;48.562;14.440;2023-12-07T09:32:02;0.70;99.90
41592;DHT22;28026;48.562;14.440;2023-12-07T09:34:34;0.80;99.90
41592;DHT22;28026;48.562;14.440;2023-12-07T09:37:10;0.90;99.90
41592;DHT22;28026;48.562;14.440;2023-12-07T09:39:42;0.90;99.90
41592;DHT22;28026;48.562;14.440;2023-12-07T09:42:13;0.80;99.90
41592;DHT22;28026;48.562;14.440;2023-12-07T09:44:43;0.90;99.90
41592;DHT22;28026;48.562;14.440;2023-12-07T09:47:14;0.80;99.90
41592;DHT22;28026;48.562;14.440;2023-12-07T09:49:46;0.60;99.90
41592;DHT22;28026;48.562;14.440;2023-12-07T09:52:18;0.60;99.90
41592;DHT22;28026;48.562;14.440;2023-12-07T09:54:51;0.80;99.90
41592;DHT22;28026;48.562;14.440;2023-12-07T09:57:25;0.80;99.90
41592;DHT22;28026;48.562;14.440;2023-12-07T09:59:56;0.80;99.90
41592;DHT22;28026;48.562;14.440;2023-12-07T10:02:27;0.80;99.90
41592;DHT22;28026;48.562;14.440;2023-12-07T10:05:06;0.90;99.90
41592;DHT22;28026;48.562;14.440;2023-12-07T10:07:44;0.80;99.90
41592;DHT22;28026;48.562;14.440;2023-12-07T10:10:19;0.90;99.90
41592;DHT22;28026;48.562;14.440;2023-12-07T10:12:53;1.10;99.90
41592;DHT22;28026;48.562;14.440;2023-12-07T10:15:27;1.20;99.90
41592;DHT22;28026;48.562;14.440;2023-12-07T10:17:59;1.40;99.90
41592;DHT22;28026;48.562;14.440;2023-12-07T10:20:30;1.40;99.90
41592;DHT22;28026;48.562;14.440;2023-12-07T10:23:05;1.10;99.90
41592;DHT22;28026;48.562;14.440;2023-12-07T10:25:41;1.10;99.90
41592;DHT22;28026;48.562;14.440;2023-12-07T10:28:12;1.30;99.90
41592;DHT22;28026;48.562;14.440;2023-12-07T10:30:47;1.30;99.90
41592;DHT22;28026;48.562;14.440;2023-12-07T10:33:19;1.30;99.90
41592;DHT22;28026;48.562;14.440;2023-12-07T10:35:50;1.10;99.90
41592;DHT22;28026;48.562;14.440;2023-12-07T10:38:21;1.10;99.90
41592;DHT22;28026;48.562;14.440;2023-12-07T10:41:05;1.00;99.90
41592;DHT22;28026;48.562;14.440;2023-12-07T10:43:43;0.80;99.90
41592;DHT22;28026;48.562;14.440;2023-12-07T10:46:19;0.60;99.90
41592;DHT22;28026;48.562;14.440;2023-12-07T10:48:59;0.60;99.90
41592;DHT22;28026;48.562;14.440;2023-12-07T10:51:41;0.90;99.90
41592;DHT22;28026;48.562;14.440;2023-12-07T10:54:22;1.10;99.90
41592;DHT22;28026;48.562;14.440;2023-12-07T10:57:00;1.40;99.90
41592;DHT22;28026;48.562;14.440;2023-12-07T10:59:35;1.20;99.90
41592;DHT22;28026;48.562;14.440;2023-12-07T11:02:12;1.40;99.90
41592;DHT22;28026;48.562;14.440;2023-12-07T11:04:46;1.60;99.90
41592;DHT22;28026;48.562;14.440;2023-12-07T11:07:20;1.70;99.90
41592;DHT22;28026;48.562;14.440;2023-12-07T11:10:03;1.90;99.90
41592;DHT22;28026;48.562;14.440;2023-12-07T11:12:51;1.90;99.90
41592;DHT22;28026;48.562;14.440;2023-12-07T11:15:39;1.90;99.90
41592;DHT22;28026;48.562;14.440;2023-12-07T11:18:11;1.50;99.90
41592;DHT22;28026;48.562;14.440;2023-12-07T11:20:45;1.70;99.90
41592;DHT22;28026;48.562;14.440;2023-12-07T11:23:20;2.00;99.90
41592;DHT22;28026;48.562;14.440;2023-12-07T11:25:52;1.90;99.90
41592;DHT22;28026;48.562;14.440;2023-12-07T11:28:36;1.80;99.90
41592;DHT22;28026;48.562;14.440;2023-12-07T11:31:10;1.90;99.90
41592;DHT22;28026;48.562;14.440;2023-12-07T11:33:41;1.60;99.90
41592;DHT22;28026;48.562;14.440;2023-12-07T11:36:13;1.70;99.90
41592;DHT22;28026;48.562;14.440;2023-12-07T11:41:45;2.00;99.90
41592;DHT22;28026;48.562;14.440;2023-12-07T11:44:31;2.00;99.90
41592;DHT22;28026;48.562;14.440;2023-12-07T11:47:06;1.90;99.90
41592;DHT22;28026;48.562;14.440;2023-12-07T11:49:38;1.70;99.90
41592;DHT22;28026;48.562;14.440;2023-12-07T11:52:16;1.70;99.90
41592;DHT22;28026;48.562;14.440;2023-12-07T11:54:50;1.50;99.90
41592;DHT22;28026;48.562;14.440;2023-12-07T11:57:21;1.60;99.90
41592;DHT22;28026;48.562;14.440;2023-12-07T11:59:52;1.90;99.90
41592;DHT22;28026;48.562;14.440;2023-12-07T12:02:23;2.10;99.90
41592;DHT22;28026;48.562;14.440;2023-12-07T12:04:54;2.00;99.90
41592;DHT22;28026;48.562;14.440;2023-12-07T12:07:25;1.80;99.90
41592;DHT22;28026;48.562;14.440;2023-12-07T12:09:56;1.50;99.90
41592;DHT22;28026;48.562;14.440;2023-12-07T12:12:27;1.50;99.90
41592;DHT22;28026;48.562;14.440;2023-12-07T12:14:58;1.60;99.90
41592;DHT22;28026;48.562;14.440;2023-12-07T12:17:29;2.00;99.90
41592;DHT22;28026;48.562;14.440;2023-12-07T12:20:02;2.90;99.90
41592;DHT22;28026;48.562;14.440;2023-12-07T12:22:36;2.90;99.90
41592;DHT22;28026;48.562;14.440;2023-12-07T12:25:07;2.70;99.90
41592;DHT22;28026;48.562;14.440;2023-12-07T12:27:39;2.40;99.90
41592;DHT22;28026;48.562;14.440;2023-12-07T12:30:11;2.30;99.90
41592;DHT22;28026;48.562;14.440;2023-12-07T12:32:46;2.50;99.90
41592;DHT22;28026;48.562;14.440;2023-12-07T12:35:17;2.60;99.90
41592;DHT22;28026;48.562;14.440;2023-12-07T12:37:49;3.10;99.90
41592;DHT22;28026;48.562;14.440;2023-12-07T12:40:21;2.90;99.90
41592;DHT22;28026;48.562;14.440;2023-12-07T12:42:53;2.80;99.90
41592;DHT22;28026;48.562;14.440;2023-12-07T12:45:25;3.00;99.90
41592;DHT22;28026;48.562;14.440;2023-12-07T12:47:56;3.10;99.90
41592;DHT22;28026;48.562;14.440;2023-12-07T12:53:09;2.70;99.90
41592;DHT22;28026;48.562;14.440;2023-12-07T12:55:42;3.20;99.90
41592;DHT22;28026;48.562;14.440;2023-12-07T12:58:14;2.90;99.90
41592;DHT22;28026;48.562;14.440;2023-12-07T13:00:47;2.50;99.90
41592;DHT22;28026;48.562;14.440;2023-12-07T13:03:18;2.80;99.90
41592;DHT22;28026;48.562;14.440;2023-12-07T13:05:49;2.70;99.90
41592;DHT22;28026;48.562;14.440;2023-12-07T13:08:20;2.70;99.90
41592;DHT22;28026;48.562;14.440;2023-12-07T13:10:51;2.10;99.90
41592;DHT22;28026;48.562;14.440;2023-12-07T13:13:22;1.70;99.90
41592;DHT22;28026;48.562;14.440;2023-12-07T13:15:53;1.40;99.90
41592;DHT22;28026;48.562;14.440;2023-12-07T13:18:24;1.20;99.90
41592;DHT22;28026;48.562;14.440;2023-12-07T13:20:55;1.00;99.90
41592;DHT22;28026;48.562;14.440;2023-12-07T13:23:26;1.00;99.90
41592;DHT22;28026;48.562;14.440;2023-12-07T13:25:57;0.90;99.90
41592;DHT22;28026;48.562;14.440;2023-12-07T13:28:27;1.10;99.90
41592;DHT22;28026;48.562;14.440;2023-12-07T13:30:58;1.20;99.90
41592;DHT22;28026;48.562;14.440;2023-12-07T13:33:29;1.30;99.90
41592;DHT22;28026;48.562;14.440;2023-12-07T13:36:00;1.30;99.90
41592;DHT22;28026;48.562;14.440;2023-12-07T13:38:31;1.20;99.90
41592;DHT22;28026;48.562;14.440;2023-12-07T13:41:04;1.20;99.90
41592;DHT22;28026;48.562;14.440;2023-12-07T13:43:35;1.10;99.90
41592;DHT22;28026;48.562;14.440;2023-12-07T13:46:05;1.10;99.90
41592;DHT22;28026;48.562;14.440;2023-12-07T13:48:36;1.00;99.90
41592;DHT22;28026;48.562;14.440;2023-12-07T13:51:08;1.00;99.90
41592;DHT22;28026;48.562;14.440;2023-12-07T13:53:39;0.80;99.90
41592;DHT22;28026;48.562;14.440;2023-12-07T13:56:10;0.70;99.90
41592;DHT22;28026;48.562;14.440;2023-12-07T13:58:41;0.70;99.90
41592;DHT22;28026;48.562;14.440;2023-12-07T14:01:12;0.80;99.90
41592;DHT22;28026;48.562;14.440;2023-12-07T14:03:42;0.80;99.90
41592;DHT22;28026;48.562;14.440;2023-12-07T14:06:22;0.80;99.90
41592;DHT22;28026;48.562;14.440;2023-12-07T14:08:56;1.00;99.90
41592;DHT22;28026;48.562;14.440;2023-12-07T14:11:27;0.90;99.90
41592;DHT22;28026;48.562;14.440;2023-12-07T14:13:58;1.00;99.90
41592;DHT22;28026;48.562;14.440;2023-12-07T14:16:29;1.10;99.90
41592;DHT22;28026;48.562;14.440;2023-12-07T14:19:00;1.10;99.90
41592;DHT22;28026;48.562;14.440;2023-12-07T14:21:31;1.50;99.90
41592;DHT22;28026;48.562;14.440;2023-12-07T14:24:02;1.50;99.90
41592;DHT22;28026;48.562;14.440;2023-12-07T14:26:34;1.60;99.90
41592;DHT22;28026;48.562;14.440;2023-12-07T14:29:05;1.90;99.90
41592;DHT22;28026;48.562;14.440;2023-12-07T14:31:39;1.90;99.90
41592;DHT22;28026;48.562;14.440;2023-12-07T14:34:10;2.00;99.90
41592;DHT22;28026;48.562;14.440;2023-12-07T14:36:41;2.00;99.90
41592;DHT22;28026;48.562;14.440;2023-12-07T14:39:14;2.30;99.90
41592;DHT22;28026;48.562;14.440;2023-12-07T14:41:49;2.50;99.90
41592;DHT22;28026;48.562;14.440;2023-12-07T14:44:23;2.90;99.90
41592;DHT22;28026;48.562;14.440;2023-12-07T14:46:54;3.20;99.90
41592;DHT22;28026;48.562;14.440;2023-12-07T14:49:25;3.40;99.90
41592;DHT22;28026;48.562;14.440;2023-12-07T14:51:56;3.60;99.90
41592;DHT22;28026;48.562;14.440;2023-12-07T14:54:29;3.80;99.90
41592;DHT22;28026;48.562;14.440;2023-12-07T14:57:01;4.30;99.90
41592;DHT22;28026;48.562;14.440;2023-12-07T14:59:33;4.00;99.90
41592;DHT22;28026;48.562;14.440;2023-12-07T15:02:05;3.30;99.90
41592;DHT22;28026;48.562;14.440;2023-12-07T15:04:38;2.80;99.90
41592;DHT22;28026;48.562;14.440;2023-12-07T15:07:09;2.50;99.90
41592;DHT22;28026;48.562;14.440;2023-12-07T15:09:40;2.30;99.90
41592;DHT22;28026;48.562;14.440;2023-12-07T15:12:10;2.20;99.90
41592;DHT22;28026;48.562;14.440;2023-12-07T15:14:41;2.10;99.90
41592;DHT22;28026;48.562;14.440;2023-12-07T15:17:14;1.90;99.90
41592;DHT22;28026;48.562;14.440;2023-12-07T15:19:45;1.80;99.90
41592;DHT22;28026;48.562;14.440;2023-12-07T15:22:16;1.70;99.90
41592;DHT22;28026;48.562;14.440;2023-12-07T15:24:47;1.60;99.90
41592;DHT22;28026;48.562;14.440;2023-12-07T15:27:17;1.60;99.90
41592;DHT22;28026;48.562;14.440;2023-12-07T15:29:48;1.50;99.90
41592;DHT22;28026;48.562;14.440;2023-12-07T15:32:19;1.30;99.90
41592;DHT22;28026;48.562;14.440;2023-12-07T15:34:50;1.10;99.90
41592;DHT22;28026;48.562;14.440;2023-12-07T15:37:21;1.00;99.90
41592;DHT22;28026;48.562;14.440;2023-12-07T15:39:52;1.00;99.90
41592;DHT22;28026;48.562;14.440;2023-12-07T15:42:23;1.00;99.90
41592;DHT22;28026;48.562;14.440;2023-12-07T15:44:54;0.80;99.90
41592;DHT22;28026;48.562;14.440;2023-12-07T15:47:24;0.80;99.90
41592;DHT22;28026;48.562;14.440;2023-12-07T15:49:55;0.80;99.90
41592;DHT22;28026;48.562;14.440;2023-12-07T15:52:26;0.80;99.90
41592;DHT22;28026;48.562;14.440;2023-12-07T15:54:57;0.70;99.90
41592;DHT22;28026;48.562;14.440;2023-12-07T15:57:28;0.60;99.90
41592;DHT22;28026;48.562;14.440;2023-12-07T15:59:59;0.50;99.90
41592;DHT22;28026;48.562;14.440;2023-12-07T16:02:30;0.40;99.90
41592;DHT22;28026;48.562;14.440;2023-12-07T16:05:02;0.30;99.90